Time;durP1;ratioP1;P1;durP2;ratioP2;P2;SDS_P1;SDS_P2;PMS_P1;PMS_P2;Temp;Humidity;BMP_temperature;BMP_pressure;BME280_temperature;BME280_humidity;BME280_pressure;Samples;Min_cycle;Max_cycle;Signal;HPM_P1;HPM_P2
2023/08/13 00:01:27;;;;;;;16.73;12.88;;;;;;;-145.63;54.74;38545.16;5035056;28;20029;-68
2023/08/13 00:03:53;;;;;;;14.50;12.10;;;;;;;-145.63;54.92;38582.31;5039140;28;20054;-69
2023/08/13 00:06:19;;;;;;;16.08;12.25;;;;;;;-145.63;54.39;38580.34;5024694;28;20040;-69
2023/08/13 00:08:44;;;;;;;13.45;12.10;;;;;;;-145.63;54.35;38513.88;5024792;28;20049;-71
2023/08/13 00:11:11;;;;;;;17.50;12.60;;;;;;;-145.63;54.77;38635.09;5040565;28;20029;-69
2023/08/13 00:13:38;;;;;;;17.48;12.07;;;;;;;-145.63;54.88;38558.84;5032996;28;20056;-69
2023/08/13 00:16:04;;;;;;;13.45;12.05;;;;;;;-145.63;55.34;38578.41;5031017;28;20311;-69
2023/08/13 00:18:32;;;;;;;13.55;11.70;;;;;;;-145.63;55.03;38521.69;5042007;28;20088;-68
2023/08/13 00:20:59;;;;;;;13.40;12.02;;;;;;;-145.63;54.92;38594.03;5024193;28;20235;-69
2023/08/13 00:23:25;;;;;;;14.27;12.73;;;;;;;-145.63;55.49;38574.47;5042062;28;20025;-69
2023/08/13 00:25:50;;;;;;;16.15;12.70;;;;;;;-145.63;55.47;38609.69;5033866;28;20030;-69
2023/08/13 00:28:16;;;;;;;20.77;14.15;;;;;;;-145.63;55.54;38580.34;5037663;28;20025;-70
2023/08/13 00:30:42;;;;;;;14.55;13.05;;;;;;;-145.63;55.75;38533.41;5040478;28;20167;-69
2023/08/13 00:33:07;;;;;;;16.73;14.13;;;;;;;-145.63;55.70;38543.19;5024323;28;20026;-69
2023/08/13 00:35:33;;;;;;;15.07;13.48;;;;;;;-145.63;55.89;38574.47;5043062;28;20021;-69
2023/08/13 00:37:59;;;;;;;19.02;14.93;;;;;;;-145.63;56.09;38594.03;5053320;28;20314;-70
2023/08/13 00:40:25;;;;;;;17.33;13.82;;;;;;;-145.63;56.16;38637.06;5042722;28;20025;-69
2023/08/13 00:42:50;;;;;;;18.10;14.38;;;;;;;-145.63;56.53;38652.69;5028662;28;20104;-68
2023/08/13 00:45:16;;;;;;;18.80;14.25;;;;;;;-145.63;56.53;38656.59;5043850;28;20029;-68
2023/08/13 00:47:44;;;;;;;16.98;14.85;;;;;;;-145.63;56.57;38613.59;5024016;28;20026;-68
2023/08/13 00:50:10;;;;;;;17.90;14.85;;;;;;;-145.63;56.49;38570.56;5039390;28;20029;-69
2023/08/13 00:52:36;;;;;;;16.27;13.77;;;;;;;-145.63;56.31;38611.63;5032748;28;20029;-69
2023/08/13 00:55:03;;;;;;;16.50;14.30;;;;;;;-145.63;56.45;38590.13;5029950;28;20118;-68
2023/08/13 00:57:30;;;;;;;16.08;14.38;;;;;;;-145.63;56.83;38652.69;5042146;28;20030;-67
2023/08/13 00:59:57;;;;;;;16.00;14.27;;;;;;;-145.63;56.67;38642.91;5023316;28;20401;-68
2023/08/13 01:02:23;;;;;;;16.70;13.95;;;;;;;-145.63;56.54;38672.25;5023505;28;20045;-69
2023/08/13 01:04:49;;;;;;;16.35;14.00;;;;;;;-145.63;56.57;38627.28;5035890;28;20238;-67
2023/08/13 01:07:17;;;;;;;16.05;13.48;;;;;;;-145.63;56.78;38633.16;5035517;28;20025;-67
2023/08/13 01:09:48;;;;;;;16.60;13.43;;;;;;;-145.63;57.20;38189.28;5027025;28;20097;-69
2023/08/13 01:12:32;;;;;;;15.20;13.60;;;;;;;-145.63;57.45;38640.97;5043092;28;20026;-68
2023/08/13 01:15:18;;;;;;;14.60;13.02;;;;;;;-145.63;57.68;38652.69;5023560;28;20088;-67
2023/08/13 01:17:48;;;;;;;19.85;14.02;;;;;;;-145.63;57.85;38656.59;5023533;28;20049;-68
2023/08/13 01:20:15;;;;;;;17.42;13.85;;;;;;;-145.63;57.97;38625.31;5039049;28;20029;-68
2023/08/13 01:22:48;;;;;;;14.50;12.98;;;;;;;-145.63;57.82;38666.38;5031858;28;20092;-67
2023/08/13 01:25:16;;;;;;;15.40;13.77;;;;;;;-145.63;57.95;38648.78;5030043;28;20026;-66
2023/08/13 01:27:56;;;;;;;16.65;13.50;;;;;;;-145.63;57.46;38637.06;5034911;28;20223;-67
2023/08/13 01:30:41;;;;;;;19.98;13.82;;;;;;;-145.63;57.34;38629.22;5023378;28;20032;-67
2023/08/13 01:33:08;;;;;;;15.93;13.93;;;;;;;-145.63;57.34;38693.75;5042801;28;20084;-67
2023/08/13 01:35:35;;;;;;;18.60;14.30;;;;;;;-145.63;57.06;38635.09;5049987;28;20048;-67
2023/08/13 01:38:02;;;;;;;15.85;12.70;;;;;;;-145.63;57.44;38468.91;5035624;28;20033;-67
2023/08/13 01:40:28;;;;;;;16.50;12.65;;;;;;;-145.63;57.93;38680.06;5037476;28;20029;-67
2023/08/13 01:42:55;;;;;;;18.20;13.98;;;;;;;-145.63;58.17;38687.91;5034174;28;20048;-67
2023/08/13 01:45:21;;;;;;;15.77;14.07;;;;;;;-145.63;57.85;38654.66;5049670;28;20237;-68
2023/08/13 01:47:47;;;;;;;15.40;13.80;;;;;;;-145.63;58.28;38699.63;5049694;28;20021;-67
2023/08/13 01:50:13;;;;;;;17.65;13.85;;;;;;;-145.63;58.40;38695.72;5034349;28;20022;-68
2023/08/13 01:52:39;;;;;;;16.70;14.35;;;;;;;-145.63;58.56;38684.00;5040483;28;20017;-67
2023/08/13 01:55:05;;;;;;;15.20;13.60;;;;;;;-145.63;58.01;38644.88;5042285;28;20051;-67
2023/08/13 01:57:31;;;;;;;16.50;13.95;;;;;;;-145.63;58.53;38674.22;5030851;28;20048;-67
2023/08/13 01:59:57;;;;;;;16.33;14.10;;;;;;;-145.63;58.71;38719.19;5049729;28;20025;-70
2023/08/13 02:02:23;;;;;;;18.70;15.50;;;;;;;-145.63;58.46;38652.69;5032697;28;20053;-66
2023/08/13 02:04:48;;;;;;;15.70;14.10;;;;;;;-145.63;58.57;38691.81;5041298;28;20233;-66
2023/08/13 02:07:14;;;;;;;16.45;14.65;;;;;;;-145.63;58.56;38695.72;5042237;28;20045;-65
2023/08/13 02:09:40;;;;;;;17.52;13.63;;;;;;;-145.63;58.63;38685.94;5032041;28;20022;-66
2023/08/13 02:12:06;;;;;;;16.92;14.15;;;;;;;-145.63;58.88;38773.94;5049379;28;20341;-67
2023/08/13 02:14:32;;;;;;;18.08;14.18;;;;;;;-145.63;58.67;38707.44;5031812;28;20125;-68
2023/08/13 02:16:59;;;;;;;18.13;14.82;;;;;;;-145.63;58.44;38709.41;5041373;28;20021;-68
2023/08/13 02:19:45;;;;;;;18.90;14.65;;;;;;;-145.63;58.40;38689.84;5036843;28;20071;-67
2023/08/13 02:22:10;;;;;;;16.33;14.43;;;;;;;-145.63;58.45;38717.22;5035761;28;20064;-68
2023/08/13 02:24:36;;;;;;;17.55;14.75;;;;;;;-145.63;58.76;38703.53;5047245;28;20033;-67
2023/08/13 02:27:02;;;;;;;20.58;15.30;;;;;;;-145.63;58.82;38734.81;5036991;28;20279;-68
2023/08/13 02:29:28;;;;;;;16.08;14.38;;;;;;;-145.63;58.68;38734.81;5048015;28;20310;-70
2023/08/13 02:31:53;;;;;;;16.25;14.57;;;;;;;-145.63;59.11;38719.19;5036607;28;20053;-68
2023/08/13 02:34:19;;;;;;;19.20;15.15;;;;;;;-145.63;59.11;38685.94;5037035;28;20221;-68
2023/08/13 02:36:45;;;;;;;22.42;15.18;;;;;;;-145.63;58.90;38682.03;5046268;28;20025;-68
2023/08/13 02:39:10;;;;;;;22.33;15.65;;;;;;;-145.63;58.38;38678.13;5029323;28;20025;-67
2023/08/13 02:41:36;;;;;;;19.90;15.63;;;;;;;-145.63;58.52;38672.25;5036399;28;20018;-66
2023/08/13 02:44:02;;;;;;;19.60;15.70;;;;;;;-145.63;58.53;38709.41;5041989;28;20301;-66
2023/08/13 02:46:27;;;;;;;20.13;15.85;;;;;;;-145.63;58.98;38676.16;5045965;28;20036;-68
2023/08/13 02:48:54;;;;;;;18.17;14.90;;;;;;;-145.63;59.39;38701.59;5041846;28;20307;-68
2023/08/13 02:51:20;;;;;;;17.83;15.20;;;;;;;-145.63;59.03;38658.56;5025996;28;20167;-67
2023/08/13 02:53:46;;;;;;;19.63;15.90;;;;;;;-145.63;58.67;38685.94;5025599;28;20025;-66
2023/08/13 02:56:12;;;;;;;19.83;16.08;;;;;;;-145.63;58.68;38697.69;5040393;28;20326;-69
2023/08/13 02:58:38;;;;;;;21.60;15.88;;;;;;;-145.63;58.46;38654.66;5035876;28;20037;-69
2023/08/13 03:01:04;;;;;;;18.95;16.30;;;;;;;-145.63;58.63;38682.03;5031005;28;20115;-69
2023/08/13 03:03:30;;;;;;;15.98;14.23;;;;;;;-145.63;58.66;38687.91;5043918;28;20063;-69
2023/08/13 03:05:56;;;;;;;19.80;15.10;;;;;;;-145.63;58.39;38668.34;5025673;28;20069;-68
2023/08/13 03:08:22;;;;;;;20.05;15.45;;;;;;;-145.63;58.47;38648.78;5041461;28;20096;-67
2023/08/13 03:10:47;;;;;;;18.27;15.55;;;;;;;-145.63;58.91;38682.03;5034302;28;20032;-67
2023/08/13 03:13:13;;;;;;;17.30;15.55;;;;;;;-145.63;58.95;38666.38;5032295;28;20025;-67
2023/08/13 03:15:39;;;;;;;18.50;15.43;;;;;;;-145.63;58.60;38605.78;5045520;28;20022;-66
2023/08/13 03:18:05;;;;;;;21.23;15.60;;;;;;;-145.63;58.53;38644.88;5040074;28;20033;-66
2023/08/13 03:20:30;;;;;;;18.65;15.30;;;;;;;-145.63;58.48;38639.00;5028976;28;20025;-67
2023/08/13 03:22:56;;;;;;;20.05;15.43;;;;;;;-145.63;58.74;38660.53;5037483;28;20085;-67
2023/08/13 03:25:22;;;;;;;18.83;15.10;;;;;;;-145.63;58.13;38625.31;5037405;28;20089;-68
2023/08/13 03:27:48;;;;;;;18.88;15.13;;;;;;;-145.63;58.05;38621.41;5033222;28;20047;-66
2023/08/13 03:30:14;;;;;;;17.25;15.45;;;;;;;-145.63;58.06;38682.03;5033418;28;20022;-66
2023/08/13 03:32:40;;;;;;;19.23;15.65;;;;;;;-145.63;57.97;38615.53;5025442;28;20100;-66
2023/08/13 03:35:06;;;;;;;19.90;15.40;;;;;;;-145.63;57.28;38568.63;5037517;28;20049;-67
2023/08/13 03:37:32;;;;;;;19.33;15.25;;;;;;;-145.63;57.32;38566.66;5035144;28;20026;-67
2023/08/13 03:39:57;;;;;;;17.52;15.70;;;;;;;-145.63;57.33;38597.94;5029020;28;20183;-66
2023/08/13 03:42:23;;;;;;;19.58;15.32;;;;;;;-145.63;57.48;38549.06;5027470;28;20191;-65
2023/08/13 03:44:48;;;;;;;18.17;14.23;;;;;;;-145.63;57.26;38554.94;5044107;28;20048;-66
2023/08/13 03:47:14;;;;;;;21.75;15.98;;;;;;;-145.63;56.97;38533.41;5044851;28;20033;-66
2023/08/13 03:49:40;;;;;;;22.80;16.02;;;;;;;-145.63;56.96;38582.31;5035149;28;20037;-66
2023/08/13 03:52:09;;;;;;;16.42;14.00;;;;;;;-145.63;56.82;38519.72;5024823;28;20050;-66
2023/08/13 03:54:35;;;;;;;19.80;15.05;;;;;;;-145.63;57.18;38508.00;5025670;28;20065;-66
2023/08/13 03:57:01;;;;;;;23.17;15.07;;;;;;;-145.63;57.24;38594.03;5044108;28;20025;-67
2023/08/13 03:59:26;;;;;;;20.85;16.77;;;;;;;-145.63;57.02;38568.63;5028685;28;20040;-68
2023/08/13 04:01:52;;;;;;;21.13;16.35;;;;;;;-145.63;57.16;38566.66;5035847;28;20029;-66
2023/08/13 04:04:18;;;;;;;22.77;17.27;;;;;;;-145.63;57.45;38601.84;5037869;28;20058;-67
2023/08/13 04:06:44;;;;;;;22.17;17.88;;;;;;;-145.63;57.07;38570.56;5025395;28;20332;-66
2023/08/13 04:09:09;;;;;;;19.52;17.20;;;;;;;-145.63;56.56;38515.81;5044623;28;20024;-67
2023/08/13 04:11:35;;;;;;;21.27;18.13;;;;;;;-145.63;57.45;38613.59;5027252;28;20187;-67
2023/08/13 04:14:01;;;;;;;22.25;18.63;;;;;;;-145.63;57.26;38545.16;5035388;28;20021;-66
2023/08/13 04:16:27;;;;;;;22.95;18.83;;;;;;;-145.63;57.41;38551.03;5036814;28;20040;-66
2023/08/13 04:18:52;;;;;;;25.27;20.67;;;;;;;-145.63;57.18;38560.78;5027400;28;20021;-65
2023/08/13 04:21:18;;;;;;;23.73;18.80;;;;;;;-145.63;56.99;38509.97;5044163;28;20025;-66
2023/08/13 04:23:44;;;;;;;24.58;19.58;;;;;;;-145.63;57.24;38558.84;5025933;28;20028;-65
2023/08/13 04:26:10;;;;;;;27.45;21.50;;;;;;;-145.63;57.34;38508.00;5032730;28;20034;-65
2023/08/13 04:28:35;;;;;;;23.60;20.75;;;;;;;-145.63;57.70;38558.84;5032499;28;20072;-65
2023/08/13 04:31:01;;;;;;;25.95;22.17;;;;;;;-145.63;57.30;38519.72;5028130;28;20218;-67
2023/08/13 04:33:27;;;;;;;26.48;22.08;;;;;;;-145.63;57.32;38566.66;5024423;28;20037;-67
2023/08/13 04:35:54;;;;;;;23.77;21.23;;;;;;;-145.63;56.83;38484.53;5042049;28;20025;-68
2023/08/13 04:38:20;;;;;;;23.50;20.65;;;;;;;-145.63;56.78;38498.22;5036478;28;20061;-67
2023/08/13 04:40:50;;;;;;;27.17;21.80;;;;;;;-145.63;56.17;38451.28;5028192;28;20044;-67
2023/08/13 04:43:16;;;;;;;23.30;20.17;;;;;;;-145.63;56.15;38459.13;5029775;28;20025;-67
2023/08/13 04:45:46;;;;;;;26.60;23.65;;;;;;;-145.63;55.76;38455.22;5035892;28;20181;-66
2023/08/13 04:48:16;;;;;;;28.33;23.17;;;;;;;-145.63;56.11;38511.91;5043855;28;20025;-67
2023/08/13 04:50:42;;;;;;;25.15;22.60;;;;;;;-145.63;56.95;38502.13;5025953;28;20034;-65
2023/08/13 04:53:07;;;;;;;27.42;23.50;;;;;;;-145.63;56.49;38496.28;5036201;28;20219;-66
2023/08/13 04:55:33;;;;;;;26.80;23.00;;;;;;;-145.63;56.40;38482.59;5035763;28;20034;-66
2023/08/13 04:57:59;;;;;;;26.63;23.35;;;;;;;-145.63;56.50;38504.09;5037768;28;20059;-67
2023/08/13 05:00:24;;;;;;;28.20;24.50;;;;;;;-145.63;56.05;38494.31;5043445;28;20025;-66
2023/08/13 05:02:50;;;;;;;28.45;24.65;;;;;;;-145.63;55.91;38421.97;5024445;28;20033;-68
2023/08/13 05:05:16;;;;;;;26.17;23.58;;;;;;;-145.63;56.05;38414.16;5037454;28;20043;-66
2023/08/13 05:07:41;;;;;;;28.55;24.45;;;;;;;-145.63;55.56;38363.31;5033729;28;20026;-67
2023/08/13 05:10:07;;;;;;;27.10;24.27;;;;;;;-145.63;54.73;38410.22;5027530;28;20060;-67
2023/08/13 05:12:33;;;;;;;25.17;22.48;;;;;;;-145.63;55.20;38427.84;5043439;28;20033;-68
2023/08/13 05:14:59;;;;;;;25.80;22.65;;;;;;;-145.63;54.65;38159.97;5023404;28;20032;-66
2023/08/13 05:17:25;;;;;;;25.20;21.38;;;;;;;-145.63;54.48;38375.03;5038341;28;20037;-67
2023/08/13 05:19:50;;;;;;;25.08;22.58;;;;;;;-145.63;54.60;38316.38;5032673;28;20497;-65
2023/08/13 05:22:16;;;;;;;27.13;22.83;;;;;;;-145.63;54.59;38359.41;5028861;28;20021;-65
2023/08/13 05:24:43;;;;;;;23.25;20.92;;;;;;;-145.63;54.34;38320.28;5042193;28;20029;-67
2023/08/13 05:27:08;;;;;;;24.05;21.55;;;;;;;-145.63;53.74;38273.38;5026452;28;20033;-66
2023/08/13 05:29:34;;;;;;;23.35;20.85;;;;;;;-145.63;53.71;38253.81;5033316;28;20034;-66
2023/08/13 05:32:00;;;;;;;23.40;20.88;;;;;;;-145.63;53.71;38306.59;5034758;28;20344;-66
2023/08/13 05:34:25;;;;;;;23.15;20.42;;;;;;;-145.63;53.38;38292.91;5031704;28;20033;-66
2023/08/13 05:36:51;;;;;;;23.30;20.80;;;;;;;-145.63;53.23;38335.94;5030967;28;20334;-65
2023/08/13 05:39:17;;;;;;;22.60;20.30;;;;;;;-145.63;53.54;38384.81;5022386;28;20026;-67
2023/08/13 05:41:42;;;;;;;22.88;20.50;;;;;;;-145.63;53.60;38339.84;5028569;28;20026;-67
2023/08/13 05:44:08;;;;;;;20.73;18.65;;;;;;;-145.63;53.38;38341.81;5035561;28;20029;-65
2023/08/13 05:46:33;;;;;;;22.85;19.30;;;;;;;-145.63;53.11;38302.69;5042862;28;20037;-67
2023/08/13 05:48:59;;;;;;;24.90;18.90;;;;;;;-145.63;53.19;38285.09;5042901;28;20040;-66
2023/08/13 05:51:25;;;;;;;21.95;19.75;;;;;;;-145.63;52.48;38242.09;5034953;28;20029;-66
2023/08/13 05:53:51;;;;;;;18.40;16.40;;;;;;;-145.63;52.18;38249.91;5035423;28;20206;-66
2023/08/13 05:56:17;;;;;;;17.80;16.08;;;;;;;-145.63;52.24;38265.53;5036436;28;20032;-66
2023/08/13 05:58:43;;;;;;;20.63;15.77;;;;;;;-145.63;51.85;38261.63;5034078;28;20061;-67
2023/08/13 06:01:09;;;;;;;22.05;15.00;;;;;;;-145.63;51.39;38232.31;5027094;28;20261;-67
2023/08/13 06:03:34;;;;;;;15.32;13.38;;;;;;;-145.63;50.51;38271.41;5043142;28;20120;-65
2023/08/13 06:06:00;;;;;;;14.65;13.00;;;;;;;-145.63;50.97;38244.03;5023088;28;20045;-66
2023/08/13 06:08:26;;;;;;;16.75;13.60;;;;;;;-145.63;51.23;38257.72;5037661;28;20025;-66
2023/08/13 06:10:51;;;;;;;13.40;11.98;;;;;;;-145.63;50.99;38265.53;5032694;28;20026;-66
2023/08/13 06:13:17;;;;;;;9.57;8.50;;;;;;;-145.63;48.43;38312.47;5028164;28;20230;-66
2023/08/13 06:15:42;;;;;;;12.23;7.85;;;;;;;-145.63;49.04;38269.47;5042293;28;20021;-67
2023/08/13 06:18:08;;;;;;;11.40;8.35;;;;;;;-145.63;48.71;38281.19;5022909;28;20037;-66
2023/08/13 06:20:34;;;;;;;10.75;8.65;;;;;;;-145.63;49.21;38332.03;5041470;28;20036;-65
2023/08/13 06:22:59;;;;;;;9.02;8.23;;;;;;;-145.63;49.38;38283.16;5035072;28;20026;-66
2023/08/13 06:25:25;;;;;;;12.23;8.70;;;;;;;-145.63;49.34;38265.53;5038800;28;20033;-65
2023/08/13 06:27:51;;;;;;;8.93;8.02;;;;;;;-145.63;49.28;38044.63;5032136;28;20041;-67
2023/08/13 06:30:16;;;;;;;12.85;8.45;;;;;;;-145.63;49.23;38265.53;5026484;28;20210;-64
2023/08/13 06:32:42;;;;;;;9.40;8.18;;;;;;;-145.63;48.90;38294.88;5036288;28;20299;-68
2023/08/13 06:35:08;;;;;;;13.48;8.65;;;;;;;-145.63;49.30;38277.28;5042252;28;20033;-67
2023/08/13 06:37:34;;;;;;;10.00;8.55;;;;;;;-145.63;49.25;38316.38;5035779;28;20026;-68
2023/08/13 06:39:59;;;;;;;11.02;7.35;;;;;;;-145.63;48.56;38300.75;5035142;28;20319;-65
2023/08/13 06:42:25;;;;;;;9.63;7.93;;;;;;;-145.63;48.11;38281.19;5029886;28;20112;-67
2023/08/13 06:44:51;;;;;;;14.85;7.45;;;;;;;-145.63;48.27;38265.53;5035138;28;20029;-68
2023/08/13 06:47:16;;;;;;;10.13;7.63;;;;;;;-145.63;47.65;38312.47;5031261;28;20222;-66
2023/08/13 06:49:42;;;;;;;9.07;7.88;;;;;;;-145.63;48.14;38296.81;5034589;28;20026;-66
2023/08/13 06:52:08;;;;;;;9.88;7.55;;;;;;;-145.63;47.66;38042.66;5040869;28;20250;-67
2023/08/13 06:54:33;;;;;;;10.40;7.80;;;;;;;-145.63;47.47;38238.16;5031464;28;20049;-66
2023/08/13 06:57:00;;;;;;;9.30;8.13;;;;;;;-145.63;47.39;38273.38;5031023;28;20036;-66
2023/08/13 06:59:25;;;;;;;11.35;7.10;;;;;;;-145.63;47.21;38281.19;5040395;28;20264;-65
2023/08/13 07:01:51;;;;;;;10.18;7.03;;;;;;;-145.63;47.76;38275.31;5034892;28;20049;-65
2023/08/13 07:04:17;;;;;;;8.40;7.00;;;;;;;-145.63;47.70;38263.59;5028192;28;20042;-66
2023/08/13 07:06:43;;;;;;;11.35;6.50;;;;;;;-145.63;46.75;38285.09;5029530;28;20061;-67
2023/08/13 07:09:08;;;;;;;10.95;6.47;;;;;;;-145.63;46.42;38349.63;5034392;28;20029;-68
2023/08/13 07:11:36;;;;;;;8.23;5.82;;;;;;;-145.63;47.04;38339.84;5040034;28;20029;-69
2023/08/13 07:14:05;;;;;;;6.65;5.38;;;;;;;-145.63;46.90;38371.13;5042360;28;20073;-70
2023/08/13 07:16:31;;;;;;;10.02;5.63;;;;;;;-145.63;46.42;38373.09;5046159;28;20033;-71
2023/08/13 07:18:58;;;;;;;8.88;5.45;;;;;;;-145.63;46.76;38398.50;5033522;28;20029;-69
2023/08/13 07:21:24;;;;;;;9.27;5.38;;;;;;;-145.63;46.75;38343.75;5041474;28;20329;-68
2023/08/13 07:23:50;;;;;;;5.22;4.50;;;;;;;-145.63;46.43;38363.31;5027827;28;20093;-69
2023/08/13 07:26:15;;;;;;;10.05;4.95;;;;;;;-145.63;46.40;38332.03;5048737;28;20032;-68
2023/08/13 07:28:41;;;;;;;6.00;4.55;;;;;;;-145.63;45.74;38367.22;5035558;28;20092;-68
2023/08/13 07:31:07;;;;;;;6.50;4.38;;;;;;;-145.63;45.68;38421.97;5033158;28;20030;-68
2023/08/13 07:33:33;;;;;;;6.45;4.45;;;;;;;-145.63;45.99;38414.16;5041978;28;20353;-69
2023/08/13 07:36:00;;;;;;;6.55;4.72;;;;;;;-145.63;46.33;38439.56;5026574;28;20033;-69
2023/08/13 07:38:27;;;;;;;8.77;4.18;;;;;;;-145.63;46.18;38414.16;5039066;28;20320;-68
2023/08/13 07:40:55;;;;;;;7.45;4.15;;;;;;;-145.63;46.14;38527.56;5040627;28;20045;-67
2023/08/13 07:43:21;;;;;;;7.15;4.07;;;;;;;-145.63;46.00;38402.41;5034961;28;20057;-69
2023/08/13 07:45:47;;;;;;;4.45;4.05;;;;;;;-145.63;45.61;38363.31;5041241;28;20025;-67
2023/08/13 07:48:12;;;;;;;4.70;4.00;;;;;;;-145.63;45.46;38371.13;5032660;28;20255;-68
2023/08/13 07:50:39;;;;;;;7.05;3.75;;;;;;;-145.63;45.38;38375.03;5034360;28;20318;-68
2023/08/13 07:53:06;;;;;;;6.22;3.65;;;;;;;-145.63;45.34;38347.66;5044107;28;20322;-68
2023/08/13 07:55:31;;;;;;;5.47;3.85;;;;;;;-145.63;44.74;38363.31;5029510;28;20058;-69
2023/08/13 07:57:57;;;;;;;9.00;4.38;;;;;;;-145.63;45.21;38345.72;5042863;28;20332;-67
2023/08/13 08:00:23;;;;;;;4.93;4.43;;;;;;;-145.63;45.21;38378.94;5029870;28;20034;-68
2023/08/13 08:02:48;;;;;;;6.43;4.28;;;;;;;-145.63;45.08;38332.03;5025301;28;20030;-68
2023/08/13 08:05:16;;;;;;;4.50;4.00;;;;;;;-145.63;45.22;38386.78;5032991;28;20101;-69
2023/08/13 08:07:42;;;;;;;7.63;4.95;;;;;;;-145.63;45.11;38425.88;5037454;28;20254;-68
2023/08/13 08:10:09;;;;;;;7.20;4.32;;;;;;;-145.63;45.59;38431.75;5031899;28;20184;-68
2023/08/13 08:12:35;;;;;;;4.43;4.05;;;;;;;-145.63;46.07;38494.31;5039114;28;20048;-69
2023/08/13 08:15:01;;;;;;;7.28;4.22;;;;;;;-145.63;45.90;38406.31;5026733;28;20207;-71
2023/08/13 08:17:29;;;;;;;4.82;3.70;;;;;;;-145.63;46.43;38486.50;5034026;28;20073;-70
2023/08/13 08:19:54;;;;;;;6.82;3.65;;;;;;;-145.63;46.86;38488.44;5037595;28;20025;-68
2023/08/13 08:22:20;;;;;;;4.13;3.63;;;;;;;-145.63;46.70;38500.19;5026897;28;20034;-69
2023/08/13 08:24:46;;;;;;;26.23;21.92;;;;;;;-145.63;46.73;38461.06;5034077;28;20100;-68
2023/08/13 08:27:11;;;;;;;5.47;4.00;;;;;;;-145.63;46.94;38511.91;5034130;28;20243;-71
2023/08/13 08:29:37;;;;;;;10.95;4.28;;;;;;;-145.63;47.15;38492.34;5036757;28;20029;-73
2023/08/13 08:32:03;;;;;;;8.40;4.20;;;;;;;-145.63;47.18;38527.56;5033648;28;20025;-70
2023/08/13 08:34:30;;;;;;;10.85;5.47;;;;;;;-145.63;47.91;38519.72;5028532;28;20206;-69
2023/08/13 08:36:56;;;;;;;4.50;3.90;;;;;;;-145.63;47.56;38472.81;5042746;28;20039;-71
2023/08/13 08:39:22;;;;;;;5.35;4.85;;;;;;;-145.63;47.61;38531.47;5006544;28;20030;-67
2023/08/13 08:41:48;;;;;;;10.35;4.75;;;;;;;-145.63;47.96;38551.03;5028112;28;20022;-69
2023/08/13 08:44:21;;;;;;;5.07;4.60;;;;;;;-145.63;48.69;38558.84;5033039;28;20332;-68
2023/08/13 08:46:49;;;;;;;5.70;5.03;;;;;;;-145.63;48.61;38537.34;5029360;28;20036;-69
2023/08/13 08:49:17;;;;;;;6.57;5.60;;;;;;;-145.63;48.94;38547.09;5025910;28;20093;-68
2023/08/13 08:51:45;;;;;;;9.80;6.00;;;;;;;-145.63;49.15;38552.97;5029666;28;20095;-68
2023/08/13 08:54:11;;;;;;;5.85;4.85;;;;;;;-145.63;49.34;38558.84;5034235;28;20025;-70
2023/08/13 08:56:37;;;;;;;8.07;5.45;;;;;;;-145.63;50.12;38631.19;5033714;28;20013;-68
2023/08/13 08:59:05;;;;;;;8.38;5.53;;;;;;;-145.63;49.78;38644.88;5032871;28;20032;-72
2023/08/13 09:01:31;;;;;;;7.53;5.50;;;;;;;-145.63;49.97;39002.72;5032749;28;20029;-66
2023/08/13 09:03:56;;;;;;;25.50;18.88;;;;;;;-145.63;50.16;38621.41;5035848;28;20069;-65
2023/08/13 09:06:22;;;;;;;8.00;5.80;;;;;;;-145.63;49.69;38584.25;5026398;28;20044;-63
2023/08/13 09:08:48;;;;;;;8.13;5.30;;;;;;;-145.63;49.67;38527.56;5028310;28;20176;-64
2023/08/13 09:11:14;;;;;;;6.50;4.75;;;;;;;-145.63;48.55;38470.84;5031414;28;20045;-64
2023/08/13 09:13:48;;;;;;;7.30;4.57;;;;;;;-145.63;47.87;38476.72;5031211;28;20033;-64
2023/08/13 09:16:14;;;;;;;6.13;4.75;;;;;;;-145.63;48.22;38476.72;5031448;28;20318;-64
2023/08/13 09:18:39;;;;;;;6.97;4.35;;;;;;;-145.63;48.18;38527.56;5031073;28;20029;-64
2023/08/13 09:21:05;;;;;;;4.90;4.28;;;;;;;-145.63;48.30;38566.66;5033096;28;20037;-64
2023/08/13 09:23:30;;;;;;;6.20;4.50;;;;;;;-145.63;48.44;38523.66;5024744;28;20093;-62
2023/08/13 09:26:00;;;;;;;5.60;4.72;;;;;;;-145.63;49.15;38594.03;5027516;28;20033;-63
2023/08/13 09:28:25;;;;;;;7.47;4.68;;;;;;;-145.63;49.25;38584.25;5032050;28;20022;-62
2023/08/13 09:30:51;;;;;;;8.32;4.45;;;;;;;-145.63;48.95;38570.56;5028646;28;20044;-62
2023/08/13 09:33:17;;;;;;;4.63;3.80;;;;;;;-145.63;49.01;38572.53;5023680;28;20053;-62
2023/08/13 09:35:44;;;;;;;6.63;4.32;;;;;;;-145.63;49.35;38597.94;5031579;28;20057;-65
2023/08/13 09:38:11;;;;;;;5.95;3.92;;;;;;;-145.63;49.80;38629.22;5032091;28;20029;-65
2023/08/13 09:40:38;;;;;;;6.63;3.72;;;;;;;-145.63;49.57;38611.63;5025983;28;20394;-65
2023/08/13 09:43:06;;;;;;;6.35;3.80;;;;;;;-145.63;49.49;38578.41;5030565;28;20025;-65
2023/08/13 09:45:34;;;;;;;5.18;4.60;;;;;;;-145.63;49.42;38605.78;5030822;28;20063;-63
2023/08/13 09:48:04;;;;;;;6.68;4.07;;;;;;;-145.63;49.44;38588.16;5031042;28;20215;-65
2023/08/13 09:50:34;;;;;;;7.05;4.10;;;;;;;-145.63;49.69;38601.84;5025657;28;20065;-65
2023/08/13 09:53:02;;;;;;;6.80;4.50;;;;;;;-145.63;49.43;38580.34;5032636;28;20314;-65
2023/08/13 09:55:34;;;;;;;4.95;4.50;;;;;;;-145.63;49.38;38617.50;5030985;28;20277;-66
2023/08/13 09:58:03;;;;;;;5.38;4.50;;;;;;;-145.63;49.19;38642.91;5027751;28;20064;-64
2023/08/13 10:00:29;;;;;;;6.95;4.18;;;;;;;-145.63;49.32;38658.56;5040141;28;20057;-65
2023/08/13 10:02:55;;;;;;;7.07;4.45;;;;;;;-145.63;49.84;38642.91;5035841;28;20021;-65
2023/08/13 10:05:21;;;;;;;5.03;4.22;;;;;;;-145.63;49.99;38656.59;5034515;28;20030;-66
2023/08/13 10:07:48;;;;;;;6.13;4.20;;;;;;;-145.63;49.82;38633.16;5036898;28;20291;-67
2023/08/13 10:10:13;;;;;;;5.38;4.18;;;;;;;-145.63;49.40;38603.81;5029228;28;20203;-66
2023/08/13 10:12:40;;;;;;;5.28;4.35;;;;;;;-145.63;49.48;38648.78;5031256;28;20057;-67
2023/08/13 10:15:07;;;;;;;4.53;3.83;;;;;;;-145.63;49.53;38637.06;5031457;28;20082;-65
2023/08/13 10:17:33;;;;;;;6.13;4.25;;;;;;;-145.63;49.55;38629.22;5034559;28;20037;-68
2023/08/13 10:19:59;;;;;;;5.32;4.00;;;;;;;-145.63;49.69;38572.53;5032667;28;20018;-65
2023/08/13 10:22:35;;;;;;;4.30;3.90;;;;;;;-145.63;50.07;38629.22;5035685;28;20030;-65
2023/08/13 10:25:01;;;;;;;4.20;3.50;;;;;;;-145.63;49.97;38640.97;5035413;28;20092;-65
2023/08/13 10:27:28;;;;;;;4.30;3.35;;;;;;;-145.63;50.47;38680.06;5034647;28;20382;-65
2023/08/13 10:30:12;;;;;;;4.68;3.08;;;;;;;-145.63;50.63;38662.47;5031700;28;20025;-65
2023/08/13 10:32:50;;;;;;;5.45;3.72;;;;;;;-145.63;50.26;38672.25;5030129;28;20033;-66
2023/08/13 10:35:21;;;;;;;5.95;3.63;;;;;;;-145.63;49.92;38646.84;5031136;28;20083;-67
2023/08/13 10:37:56;;;;;;;4.80;3.28;;;;;;;-145.63;50.19;38664.44;5032533;28;20029;-66
2023/08/13 10:40:23;;;;;;;6.28;3.60;;;;;;;-145.63;49.99;38654.66;5031884;28;20127;-65
2023/08/13 10:42:50;;;;;;;6.75;3.40;;;;;;;-145.63;50.03;38652.69;5035530;28;20026;-65
2023/08/13 10:45:19;;;;;;;3.70;3.00;;;;;;;-145.63;50.34;38676.16;5036782;28;20282;-65
2023/08/13 10:47:58;;;;;;;5.85;3.33;;;;;;;-145.63;50.72;38680.06;5028825;28;20049;-65
2023/08/13 10:50:30;;;;;;;4.50;3.35;;;;;;;-145.63;51.13;38709.41;5032283;28;20044;-65
2023/08/13 10:53:09;;;;;;;6.55;3.80;;;;;;;-145.63;51.08;38693.75;5035609;28;20203;-65
2023/08/13 10:55:40;;;;;;;3.35;3.05;;;;;;;-145.63;50.58;38650.75;5030507;28;20354;-65
2023/08/13 10:58:08;;;;;;;3.38;3.13;;;;;;;-145.63;50.45;38662.47;5031107;28;20044;-67
2023/08/13 11:00:42;;;;;;;5.30;3.25;;;;;;;-145.63;50.55;38605.78;5029964;28;20417;-68
2023/08/13 11:03:41;;;;;;;4.68;3.38;;;;;;;-145.63;50.39;38680.06;5031362;28;20041;-68
2023/08/13 11:06:07;;;;;;;4.05;3.30;;;;;;;-145.63;50.72;38660.53;5034209;28;20021;-69